Time;durP1;ratioP1;P1;durP2;ratioP2;P2;SDS_P1;SDS_P2;PMS_P1;PMS_P2;Temp;Humidity;BMP_temperature;BMP_pressure;BME280_temperature;BME280_humidity;BME280_pressure;Samples;Min_cycle;Max_cycle;Signal;HPM_P1;HPM_P2
2022/11/14 00:01:52;;;;;;;6.30;4.33;;;7.50;99.90;;;;;;5039323;28;20552;-77
2022/11/14 00:04:21;;;;;;;6.83;4.70;;;7.40;99.90;;;;;;5038159;28;20451;-78
2022/11/14 00:06:47;;;;;;;6.73;4.77;;;7.40;99.90;;;;;;5064069;28;20472;-76
2022/11/14 00:09:14;;;;;;;8.07;5.33;;;7.40;99.90;;;;;;5064081;28;20452;-78
2022/11/14 00:11:41;;;;;;;6.90;5.17;;;7.30;99.90;;;;;;5060776;28;20523;-78
2022/11/14 00:14:10;;;;;;;6.10;4.33;;;7.30;99.90;;;;;;5061487;28;20452;-77
2022/11/14 00:16:37;;;;;;;6.80;4.70;;;7.20;99.90;;;;;;5062708;28;21099;-78
2022/11/14 00:19:04;;;;;;;7.80;4.60;;;7.20;99.90;;;;;;5044134;28;20483;-78
2022/11/14 00:21:32;;;;;;;6.30;5.17;;;7.20;99.90;;;;;;5044463;28;20855;-77
2022/11/14 00:23:59;;;;;;;5.60;4.80;;;7.20;99.90;;;;;;5044591;28;20460;-78
2022/11/14 00:26:25;;;;;;;7.40;5.10;;;7.10;99.90;;;;;;5044078;28;20547;-78
2022/11/14 00:28:54;;;;;;;7.50;5.50;;;7.10;99.90;;;;;;5044139;28;20459;-78
2022/11/14 00:31:21;;;;;;;6.07;4.90;;;7.10;99.90;;;;;;5046304;28;20549;-78
2022/11/14 00:33:48;;;;;;;7.20;5.00;;;7.00;99.90;;;;;;5064782;28;20478;-78
2022/11/14 00:36:15;;;;;;;5.93;4.43;;;7.00;99.90;;;;;;5057039;28;20459;-78
2022/11/14 00:38:43;;;;;;;4.83;4.27;;;7.00;99.90;;;;;;5048001;28;21043;-77
2022/11/14 00:41:10;;;;;;;5.80;4.90;;;7.00;99.90;;;;;;5050128;28;20979;-78
2022/11/14 00:43:36;;;;;;;5.70;4.73;;;7.00;99.90;;;;;;5067679;28;20463;-79
2022/11/14 00:46:03;;;;;;;7.23;5.53;;;6.90;99.90;;;;;;5067682;28;20514;-79
2022/11/14 00:48:30;;;;;;;8.10;5.37;;;6.90;99.90;;;;;;5063076;28;20451;-79
2022/11/14 00:50:57;;;;;;;6.63;4.90;;;6.90;99.90;;;;;;5047341;28;20571;-78
2022/11/14 00:53:24;;;;;;;6.90;5.03;;;6.90;99.90;;;;;;5057143;28;20448;-79
2022/11/14 00:55:52;;;;;;;8.07;5.30;;;6.80;99.90;;;;;;5061346;28;20524;-79
2022/11/14 00:58:19;;;;;;;7.03;4.67;;;6.80;99.90;;;;;;5066605;28;20447;-79
2022/11/14 01:00:45;;;;;;;8.90;5.33;;;6.80;99.90;;;;;;5064972;28;20554;-78
2022/11/14 01:03:12;;;;;;;5.70;5.03;;;6.80;99.90;;;;;;5058242;28;20581;-78
2022/11/14 01:05:43;;;;;;;8.23;5.87;;;6.70;99.90;;;;;;5064381;28;20998;-78
2022/11/14 01:08:10;;;;;;;8.50;6.20;;;6.50;99.90;;;;;;5063270;28;21043;-78
2022/11/14 01:10:39;;;;;;;8.80;5.57;;;6.60;99.90;;;;;;5049335;28;20563;-78
2022/11/14 01:13:08;;;;;;;7.57;5.87;;;6.60;99.90;;;;;;5040990;28;20456;-78
2022/11/14 01:15:38;;;;;;;7.13;5.83;;;6.50;99.90;;;;;;5050676;28;20465;-78
2022/11/14 01:18:05;;;;;;;6.87;5.10;;;6.60;99.90;;;;;;5070287;28;20514;-78
2022/11/14 01:20:32;;;;;;;7.57;5.73;;;6.60;99.90;;;;;;5054925;28;20511;-77
2022/11/14 01:22:59;;;;;;;7.70;5.37;;;6.50;99.90;;;;;;5049963;28;20567;-78
2022/11/14 01:25:26;;;;;;;7.30;5.83;;;6.50;99.90;;;;;;5059523;28;20463;-79
2022/11/14 01:27:54;;;;;;;6.10;5.30;;;6.60;99.90;;;;;;5063214;28;20538;-78
2022/11/14 01:30:22;;;;;;;10.10;6.03;;;6.60;99.90;;;;;;5063324;28;20475;-78
2022/11/14 01:32:49;;;;;;;8.43;6.03;;;6.60;99.90;;;;;;5063470;28;20991;-78
2022/11/14 01:35:16;;;;;;;7.43;6.10;;;6.60;99.90;;;;;;5056647;28;20451;-77
2022/11/14 01:37:42;;;;;;;12.07;6.70;;;6.70;99.90;;;;;;5050018;28;20905;-78
2022/11/14 01:40:11;;;;;;;7.03;6.03;;;6.70;99.90;;;;;;5047308;28;20540;-78
2022/11/14 01:42:37;;;;;;;11.73;5.53;;;6.70;99.90;;;;;;5044004;28;20820;-79
2022/11/14 01:45:38;;;;;;;9.67;7.27;;;6.70;99.90;;;;;;5044556;28;20536;-79
2022/11/14 01:48:17;;;;;;;11.03;6.67;;;6.70;99.90;;;;;;5043301;28;20539;-78
2022/11/14 01:50:44;;;;;;;8.13;6.20;;;6.70;99.90;;;;;;5047670;28;20478;-78
2022/11/14 01:53:11;;;;;;;9.10;6.87;;;6.60;99.90;;;;;;5053682;28;20512;-78
2022/11/14 01:55:38;;;;;;;8.20;6.20;;;6.70;99.90;;;;;;5044199;28;20593;-78
2022/11/14 01:58:05;;;;;;;10.50;6.90;;;6.70;99.90;;;;;;5050121;28;20448;-78
2022/11/14 02:00:32;;;;;;;8.30;6.13;;;6.70;99.90;;;;;;5063096;28;20554;-78
2022/11/14 02:03:00;;;;;;;8.93;6.73;;;6.70;99.90;;;;;;5062802;28;20497;-78
2022/11/14 02:05:29;;;;;;;9.80;6.20;;;6.60;99.90;;;;;;5044595;28;20521;-77
2022/11/14 02:07:57;;;;;;;8.23;6.60;;;6.60;99.90;;;;;;5055939;28;20891;-78
2022/11/14 02:10:24;;;;;;;9.60;6.53;;;6.70;99.90;;;;;;5046210;28;20549;-77
2022/11/14 02:12:51;;;;;;;8.00;6.53;;;6.60;99.90;;;;;;5043622;28;20461;-78
2022/11/14 02:15:18;;;;;;;8.63;5.80;;;6.60;99.90;;;;;;5041000;28;21063;-76
2022/11/14 02:17:45;;;;;;;8.30;6.40;;;6.50;99.90;;;;;;5043512;28;20464;-77
2022/11/14 02:20:21;;;;;;;8.33;5.97;;;6.50;99.90;;;;;;5057438;28;20554;-77
2022/11/14 02:22:48;;;;;;;8.90;6.43;;;6.40;99.90;;;;;;5061116;28;20581;-78
2022/11/14 02:25:18;;;;;;;10.30;6.47;;;6.40;99.90;;;;;;5050061;28;21045;-78
2022/11/14 02:27:45;;;;;;;11.33;6.40;;;6.40;99.90;;;;;;5060829;28;20458;-77
2022/11/14 02:30:15;;;;;;;8.53;6.77;;;6.40;99.90;;;;;;5060869;28;20554;-78
2022/11/14 02:32:42;;;;;;;11.73;6.87;;;6.30;99.90;;;;;;5063248;28;21051;-78
2022/11/14 02:35:09;;;;;;;11.57;7.73;;;6.30;99.90;;;;;;5046800;28;20542;-78
2022/11/14 02:37:38;;;;;;;9.93;6.70;;;6.20;99.90;;;;;;5064829;28;20455;-78
2022/11/14 02:40:06;;;;;;;10.73;6.30;;;6.30;99.90;;;;;;5052942;28;20512;-77
2022/11/14 02:42:33;;;;;;;11.30;6.30;;;6.30;99.90;;;;;;5069950;28;20561;-78
2022/11/14 02:45:00;;;;;;;8.43;7.20;;;6.30;99.90;;;;;;5070197;28;20540;-78
2022/11/14 02:47:26;;;;;;;9.47;7.13;;;6.40;99.90;;;;;;5070521;28;20476;-78
2022/11/14 02:49:53;;;;;;;9.17;6.97;;;6.40;99.90;;;;;;5059690;28;20519;-78
2022/11/14 02:52:20;;;;;;;8.50;6.97;;;6.40;99.90;;;;;;5047011;28;20537;-78
2022/11/14 02:54:48;;;;;;;9.47;6.90;;;6.40;99.90;;;;;;5043724;28;20456;-78
2022/11/14 02:57:15;;;;;;;8.40;6.27;;;6.40;99.90;;;;;;5040691;28;20508;-79
2022/11/14 02:59:42;;;;;;;9.67;6.10;;;6.40;99.90;;;;;;5043420;28;20558;-79
2022/11/14 03:02:08;;;;;;;9.73;7.07;;;6.30;99.90;;;;;;5046628;28;20480;-79
2022/11/14 03:04:35;;;;;;;8.00;6.80;;;6.30;99.90;;;;;;5055931;28;20485;-78
2022/11/14 03:07:02;;;;;;;10.80;7.30;;;6.30;99.90;;;;;;5064842;28;20916;-79
2022/11/14 03:09:29;;;;;;;7.90;6.37;;;6.30;99.90;;;;;;5063903;28;20502;-79
2022/11/14 03:11:57;;;;;;;9.23;7.20;;;6.30;99.90;;;;;;5065193;28;20466;-79
2022/11/14 03:14:24;;;;;;;8.30;6.93;;;6.20;99.90;;;;;;5062184;28;20538;-79
2022/11/14 03:16:50;;;;;;;8.80;7.60;;;6.20;99.90;;;;;;5064740;28;20514;-78
2022/11/14 03:19:18;;;;;;;8.43;6.10;;;6.20;99.90;;;;;;5064591;28;20519;-79
2022/11/14 03:21:45;;;;;;;9.83;7.43;;;6.10;99.90;;;;;;5064992;28;20454;-79
2022/11/14 03:24:11;;;;;;;7.80;6.30;;;6.10;99.90;;;;;;5064918;28;20595;-79
2022/11/14 03:26:38;;;;;;;10.50;6.83;;;6.10;99.90;;;;;;5064258;28;21008;-79
2022/11/14 03:29:08;;;;;;;8.67;7.53;;;6.00;99.90;;;;;;5063637;28;20469;-79
2022/11/14 03:31:34;;;;;;;10.57;7.10;;;6.00;99.90;;;;;;5065249;28;20573;-79
2022/11/14 03:34:01;;;;;;;11.27;6.90;;;5.90;99.90;;;;;;5064679;28;20446;-79
2022/11/14 03:36:28;;;;;;;12.93;8.03;;;5.90;99.90;;;;;;5064865;28;20517;-79
2022/11/14 03:38:55;;;;;;;9.60;7.70;;;5.80;99.90;;;;;;5063803;28;20481;-79
2022/11/14 03:41:22;;;;;;;9.47;6.67;;;5.80;99.90;;;;;;5063697;28;20471;-78
2022/11/14 03:43:48;;;;;;;9.50;6.93;;;5.70;99.90;;;;;;5060014;28;20501;-78
2022/11/14 03:46:17;;;;;;;10.37;7.23;;;5.70;99.90;;;;;;5060102;28;20468;-78
2022/11/14 03:48:43;;;;;;;10.13;7.60;;;5.70;99.90;;;;;;5062224;28;20485;-78
2022/11/14 03:51:10;;;;;;;10.13;7.40;;;5.70;99.90;;;;;;5054830;28;21022;-78
2022/11/14 03:53:37;;;;;;;11.83;7.30;;;5.70;99.90;;;;;;5061956;28;20594;-78
2022/11/14 03:56:04;;;;;;;7.60;6.40;;;5.70;99.90;;;;;;5053573;28;20456;-78
2022/11/14 03:58:31;;;;;;;8.50;6.57;;;5.70;99.90;;;;;;5042373;28;20455;-78
2022/11/14 04:01:02;;;;;;;8.57;6.90;;;5.70;99.90;;;;;;5049112;28;20525;-78
2022/11/14 04:03:30;;;;;;;9.77;6.83;;;5.70;99.90;;;;;;5063663;28;20482;-78
2022/11/14 04:05:57;;;;;;;8.27;6.60;;;5.70;99.90;;;;;;5062446;28;20459;-78
2022/11/14 04:08:24;;;;;;;9.47;7.47;;;5.60;99.90;;;;;;5061830;28;20517;-78
2022/11/14 04:10:51;;;;;;;10.73;7.17;;;5.60;99.90;;;;;;5056914;28;20514;-78
2022/11/14 04:13:18;;;;;;;8.87;6.97;;;5.60;99.90;;;;;;5059813;28;20518;-79
2022/11/14 04:15:45;;;;;;;9.77;6.73;;;5.60;99.90;;;;;;5046419;28;20445;-79
2022/11/14 04:18:11;;;;;;;9.53;6.63;;;5.60;99.90;;;;;;5047185;28;20531;-79
2022/11/14 04:20:39;;;;;;;10.40;7.13;;;5.60;99.90;;;;;;5050857;28;20494;-79
2022/11/14 04:23:06;;;;;;;9.70;7.50;;;5.60;99.90;;;;;;5059335;28;20477;-78
2022/11/14 04:25:33;;;;;;;9.30;7.10;;;5.60;99.90;;;;;;5048196;28;20455;-78
2022/11/14 04:28:00;;;;;;;8.50;6.90;;;5.60;99.90;;;;;;5047889;28;21089;-77
2022/11/14 04:30:27;;;;;;;8.60;6.30;;;5.60;99.90;;;;;;5051369;28;20479;-76
2022/11/14 04:32:53;;;;;;;12.33;7.67;;;5.60;99.90;;;;;;5053662;28;20531;-78
2022/11/14 04:35:20;;;;;;;11.47;8.37;;;5.60;99.90;;;;;;5048089;28;20533;-79
2022/11/14 04:37:48;;;;;;;11.90;8.87;;;5.60;99.90;;;;;;5053268;28;20466;-79
2022/11/14 04:40:15;;;;;;;10.57;8.10;;;5.60;99.90;;;;;;5067754;28;20527;-79
2022/11/14 04:42:42;;;;;;;8.73;7.40;;;5.60;99.90;;;;;;5048934;28;20543;-78
2022/11/14 04:45:09;;;;;;;10.93;8.07;;;5.50;99.90;;;;;;5047599;28;20451;-79
2022/11/14 04:47:36;;;;;;;10.70;7.93;;;5.40;99.90;;;;;;5047907;28;20530;-79
2022/11/14 04:50:04;;;;;;;10.30;7.20;;;5.30;99.90;;;;;;5075004;22;21731;-80
2022/11/14 04:52:31;;;;;;;10.90;7.03;;;5.40;99.90;;;;;;5060097;28;20966;-78
2022/11/14 04:54:59;;;;;;;10.43;7.37;;;5.40;99.90;;;;;;5065638;28;20545;-80
2022/11/14 04:57:27;;;;;;;15.40;7.73;;;5.40;99.90;;;;;;5065485;28;20517;-82
2022/11/14 04:59:53;;;;;;;12.20;7.47;;;5.30;99.90;;;;;;5064688;28;20587;-80
2022/11/14 05:02:20;;;;;;;10.90;7.73;;;5.30;99.90;;;;;;5065481;28;20525;-79
2022/11/14 05:04:47;;;;;;;8.23;7.03;;;5.30;99.90;;;;;;5064991;28;20811;-79
2022/11/14 05:07:14;;;;;;;8.50;7.30;;;5.30;99.90;;;;;;5063008;28;20483;-81
2022/11/14 05:09:41;;;;;;;10.97;8.23;;;5.20;99.90;;;;;;5061656;28;20462;-80
2022/11/14 05:12:09;;;;;;;9.80;7.17;;;5.20;99.90;;;;;;5065551;28;20493;-79
2022/11/14 05:14:36;;;;;;;8.57;6.63;;;5.20;99.90;;;;;;5065337;28;20441;-78
2022/11/14 05:17:03;;;;;;;9.53;7.80;;;5.20;99.90;;;;;;5065609;28;20513;-80
2022/11/14 05:19:30;;;;;;;11.87;8.40;;;5.20;99.90;;;;;;5054809;28;20520;-80
2022/11/14 05:21:56;;;;;;;10.70;7.20;;;5.20;99.90;;;;;;5063960;28;20476;-79
2022/11/14 05:24:24;;;;;;;11.50;7.87;;;5.10;99.90;;;;;;5054873;28;20571;-80
2022/11/14 05:26:50;;;;;;;11.30;8.17;;;5.10;99.90;;;;;;5044717;28;20490;-82
2022/11/14 05:29:19;;;;;;;8.30;7.30;;;5.10;99.90;;;;;;5043954;28;20456;-82
2022/11/14 05:31:45;;;;;;;9.80;7.40;;;5.10;99.90;;;;;;5046423;28;20479;-80
2022/11/14 05:34:12;;;;;;;9.57;7.37;;;5.10;99.90;;;;;;5044969;28;20452;-80
2022/11/14 05:36:39;;;;;;;10.33;7.63;;;5.10;99.90;;;;;;5059669;28;20541;-82
2022/11/14 05:39:06;;;;;;;10.80;7.53;;;5.10;99.90;;;;;;5047874;28;20576;-82
2022/11/14 05:41:33;;;;;;;9.07;6.63;;;4.90;99.90;;;;;;5044614;28;20544;-79
2022/11/14 05:43:59;;;;;;;9.37;7.43;;;5.00;99.90;;;;;;5044483;28;20487;-79
2022/11/14 05:46:27;;;;;;;11.63;8.70;;;5.00;99.90;;;;;;5045124;28;20500;-80
2022/11/14 05:48:54;;;;;;;11.10;8.60;;;5.00;99.90;;;;;;5044972;28;21022;-80
2022/11/14 05:51:21;;;;;;;11.70;7.73;;;4.90;99.90;;;;;;5055986;28;20478;-79
2022/11/14 05:53:48;;;;;;;10.73;8.00;;;4.90;99.90;;;;;;5045215;28;20988;-80
2022/11/14 05:56:15;;;;;;;9.70;7.90;;;4.90;99.90;;;;;;5044962;28;20557;-81
2022/11/14 05:58:42;;;;;;;9.93;8.30;;;4.90;99.90;;;;;;5043241;28;20453;-80
2022/11/14 06:01:11;;;;;;;10.07;7.63;;;4.90;99.90;;;;;;5044397;28;20552;-79
2022/11/14 06:03:41;;;;;;;11.97;8.43;;;4.80;99.90;;;;;;5043797;28;20492;-82
2022/11/14 06:06:10;;;;;;;9.90;7.43;;;4.90;99.90;;;;;;5062456;28;20447;-79
2022/11/14 06:08:37;;;;;;;10.37;7.73;;;4.90;99.90;;;;;;5063494;28;20873;-79
2022/11/14 06:11:05;;;;;;;13.03;8.60;;;4.90;99.90;;;;;;5064151;28;20509;-81
2022/11/14 06:13:34;;;;;;;11.07;8.20;;;4.80;99.90;;;;;;5064505;28;20442;-79
2022/11/14 06:16:02;;;;;;;17.57;9.37;;;4.90;99.90;;;;;;5046641;28;20530;-80
2022/11/14 06:18:29;;;;;;;11.17;8.23;;;4.90;99.90;;;;;;5063993;28;20515;-80
2022/11/14 06:21:00;;;;;;;14.33;8.67;;;4.90;99.90;;;;;;5063668;28;20584;-82
2022/11/14 06:23:27;;;;;;;12.30;9.03;;;5.00;99.90;;;;;;5061881;28;20530;-79
2022/11/14 06:25:59;;;;;;;12.00;8.60;;;5.00;99.90;;;;;;5061266;28;20539;-79
2022/11/14 06:28:26;;;;;;;13.60;8.93;;;5.00;99.90;;;;;;5059996;28;20429;-80
2022/11/14 06:30:57;;;;;;;12.73;9.20;;;5.00;99.90;;;;;;5061830;28;20510;-80
2022/11/14 06:33:24;;;;;;;11.90;9.33;;;5.00;99.90;;;;;;5061241;28;20520;-79
2022/11/14 06:35:51;;;;;;;14.23;9.40;;;5.00;99.90;;;;;;5061195;28;20458;-80
2022/11/14 06:38:19;;;;;;;13.67;9.57;;;5.00;99.90;;;;;;5061215;28;20457;-80
2022/11/14 06:40:46;;;;;;;11.60;8.87;;;5.00;99.90;;;;;;5061893;28;20483;-80
2022/11/14 06:43:13;;;;;;;14.93;9.60;;;5.00;99.90;;;;;;5061788;28;20446;-79
2022/11/14 06:45:40;;;;;;;11.60;8.80;;;5.10;99.90;;;;;;5059847;28;20894;-80
2022/11/14 06:48:07;;;;;;;12.30;8.60;;;5.00;99.90;;;;;;5061060;28;20457;-81
2022/11/14 06:50:34;;;;;;;11.50;8.37;;;5.00;99.90;;;;;;5062237;28;20563;-79
2022/11/14 06:53:01;;;;;;;12.97;8.90;;;4.90;99.90;;;;;;5061846;28;20511;-79
2022/11/14 06:55:29;;;;;;;14.20;9.47;;;5.00;99.90;;;;;;5052143;28;20521;-80
2022/11/14 06:57:56;;;;;;;13.63;9.17;;;5.10;99.90;;;;;;5041539;28;20459;-80
2022/11/14 07:00:23;;;;;;;14.27;8.83;;;5.10;99.90;;;;;;5051371;28;21036;-79
2022/11/14 07:02:49;;;;;;;12.30;8.73;;;5.10;99.90;;;;;;5063478;28;20537;-80
2022/11/14 07:05:16;;;;;;;13.97;10.30;;;5.20;99.90;;;;;;5064829;28;20567;-80
2022/11/14 07:07:43;;;;;;;12.00;8.60;;;5.20;99.90;;;;;;5065093;28;20527;-80
2022/11/14 07:10:11;;;;;;;12.77;7.83;;;5.20;99.90;;;;;;5063968;28;20482;-79
2022/11/14 07:12:39;;;;;;;12.13;8.10;;;5.30;99.90;;;;;;5063754;28;20519;-81
2022/11/14 07:15:06;;;;;;;12.67;8.77;;;5.30;99.90;;;;;;5062589;28;20531;-80
2022/11/14 07:17:35;;;;;;;14.63;9.10;;;5.40;99.90;;;;;;5061753;28;20481;-80
2022/11/14 07:20:02;;;;;;;15.47;8.50;;;5.40;99.90;;;;;;5061951;28;20474;-80
2022/11/14 07:22:28;;;;;;;12.33;8.77;;;5.50;99.90;;;;;;5066135;28;20459;-79
2022/11/14 07:24:55;;;;;;;13.40;8.90;;;5.50;99.90;;;;;;5065750;28;20495;-79
2022/11/14 07:27:22;;;;;;;11.83;8.37;;;5.50;99.90;;;;;;5066289;28;20516;-80
2022/11/14 07:29:50;;;;;;;14.57;9.03;;;5.50;99.90;;;;;;5066407;28;20497;-80
2022/11/14 07:32:17;;;;;;;13.50;8.50;;;5.60;99.90;;;;;;5066475;28;20450;-79
2022/11/14 07:34:44;;;;;;;12.63;9.27;;;5.60;99.90;;;;;;5066467;28;20509;-80
2022/11/14 07:37:10;;;;;;;16.53;8.30;;;5.60;99.90;;;;;;5064459;28;20453;-79
2022/11/14 07:39:37;;;;;;;12.53;9.13;;;5.70;99.90;;;;;;5065366;28;20478;-81
2022/11/14 07:42:04;;;;;;;15.33;9.07;;;5.60;99.90;;;;;;5065953;28;20502;-79
2022/11/14 07:44:31;;;;;;;13.47;8.17;;;5.60;99.90;;;;;;5066273;28;20491;-78
2022/11/14 07:46:59;;;;;;;15.30;8.70;;;5.60;99.90;;;;;;5065748;28;20535;-80
2022/11/14 07:49:26;;;;;;;12.93;7.37;;;5.70;99.90;;;;;;5065330;28;20556;-79
2022/11/14 07:51:52;;;;;;;17.10;7.93;;;5.70;99.90;;;;;;5066638;28;20602;-78
2022/11/14 07:54:19;;;;;;;13.37;8.13;;;5.80;99.90;;;;;;5066585;28;20461;-79
2022/11/14 07:56:46;;;;;;;10.30;7.83;;;5.80;99.90;;;;;;5066781;28;20549;-82
2022/11/14 07:59:13;;;;;;;11.93;8.33;;;5.80;99.90;;;;;;5065607;28;20457;-80
2022/11/14 08:01:40;;;;;;;11.03;7.63;;;5.80;99.90;;;;;;5067336;28;20534;-80
2022/11/14 08:04:08;;;;;;;11.77;7.20;;;5.90;99.90;;;;;;5067593;28;20510;-79
2022/11/14 08:06:35;;;;;;;11.40;7.67;;;6.00;99.90;;;;;;5066978;28;20424;-81
2022/11/14 08:09:01;;;;;;;9.47;7.60;;;6.00;99.90;;;;;;5066844;28;20509;-79
2022/11/14 08:14:12;;;;;;;10.47;7.70;;;6.10;99.90;;;;;;5066287;28;20408;-81
2022/11/14 08:16:39;;;;;;;13.10;7.73;;;6.20;99.90;;;;;;5065188;28;20547;-80
2022/11/14 08:19:07;;;;;;;13.83;8.87;;;6.30;99.90;;;;;;5064177;28;20552;-82
2022/11/14 08:21:34;;;;;;;11.13;8.10;;;6.30;99.90;;;;;;5065756;28;20622;-80
2022/11/14 08:24:01;;;;;;;13.00;8.30;;;6.40;99.90;;;;;;5066028;28;20478;-82
2022/11/14 08:26:28;;;;;;;11.70;8.23;;;6.40;99.90;;;;;;5065019;28;20824;-80
2022/11/14 08:28:55;;;;;;;12.00;7.73;;;6.50;99.90;;;;;;5062977;28;20531;-81
2022/11/14 08:31:21;;;;;;;15.37;8.73;;;6.50;99.90;;;;;;5065055;28;20562;-81
2022/11/14 08:33:49;;;;;;;13.10;8.53;;;6.60;99.90;;;;;;5067577;28;20478;-80
2022/11/14 08:36:17;;;;;;;10.17;7.00;;;6.60;99.90;;;;;;5065559;28;20453;-79
2022/11/14 08:38:44;;;;;;;10.70;7.97;;;6.70;99.90;;;;;;5064201;28;20979;-79
2022/11/14 08:41:11;;;;;;;15.30;8.43;;;6.70;99.90;;;;;;5064326;28;20479;-80
2022/11/14 08:43:38;;;;;;;13.13;8.07;;;6.80;99.90;;;;;;5063969;28;20510;-81
2022/11/14 08:46:05;;;;;;;11.93;8.30;;;6.80;99.90;;;;;;5065487;28;21004;-80
2022/11/14 08:48:33;;;;;;;12.63;8.13;;;6.80;99.90;;;;;;5065549;28;20546;-80
2022/11/14 08:51:04;;;;;;;14.63;8.47;;;6.90;99.90;;;;;;5064888;28;20479;-84
2022/11/14 08:53:33;;;;;;;12.37;8.43;;;6.90;99.90;;;;;;5064239;28;20494;-81
2022/11/14 08:56:00;;;;;;;14.50;8.10;;;6.90;99.90;;;;;;5064600;28;20514;-80
2022/11/14 08:58:28;;;;;;;12.63;8.07;;;7.00;99.90;;;;;;5063156;28;20446;-79
2022/11/14 09:00:59;;;;;;;14.60;8.53;;;7.00;99.90;;;;;;5064033;28;20482;-80
2022/11/14 09:03:25;;;;;;;14.23;8.93;;;7.10;99.90;;;;;;5065680;28;20525;-81
2022/11/14 09:05:53;;;;;;;15.63;10.23;;;7.20;99.90;;;;;;5064372;28;20497;-80
2022/11/14 09:08:19;;;;;;;14.33;9.37;;;7.30;99.90;;;;;;5063823;28;20527;-79
2022/11/14 09:10:48;;;;;;;17.27;10.27;;;7.40;99.90;;;;;;5065883;28;20534;-82
2022/11/14 09:13:15;;;;;;;18.77;10.80;;;7.50;99.90;;;;;;5065956;28;20599;-80
2022/11/14 09:15:42;;;;;;;16.43;11.00;;;7.60;99.90;;;;;;5065295;28;20452;-79
2022/11/14 09:18:09;;;;;;;12.27;8.50;;;7.70;99.90;;;;;;5063958;28;20526;-80
2022/11/14 09:20:36;;;;;;;12.90;9.40;;;7.80;99.90;;;;;;5063862;28;20551;-80
2022/11/14 09:23:03;;;;;;;14.97;9.17;;;7.90;99.90;;;;;;5063576;28;20542;-81
2022/11/14 09:25:31;;;;;;;13.83;10.70;;;8.10;99.90;;;;;;5064099;28;20487;-80
2022/11/14 09:28:04;;;;;;;13.60;9.63;;;8.20;99.90;;;;;;5063230;28;20507;-80
2022/11/14 09:30:31;;;;;;;17.87;10.50;;;8.30;99.90;;;;;;5063443;28;20482;-79
2022/11/14 09:33:00;;;;;;;19.13;12.97;;;8.40;99.90;;;;;;5064355;28;20461;-81
2022/11/14 09:35:27;;;;;;;13.60;10.00;;;8.50;99.90;;;;;;5064002;28;20443;-79
2022/11/14 09:38:00;;;;;;;16.80;9.80;;;8.60;99.90;;;;;;5064326;28;20515;-82
2022/11/14 09:40:27;;;;;;;17.30;11.57;;;8.70;99.90;;;;;;5064831;28;20513;-79
2022/11/14 09:43:15;;;;;;;18.53;10.90;;;8.80;99.90;;;;;;5064534;28;20452;-81
2022/11/14 09:45:47;;;;;;;15.77;11.47;;;8.90;99.90;;;;;;5062995;28;21058;-83
2022/11/14 09:48:18;;;;;;;15.57;11.13;;;8.90;99.90;;;;;;5063361;28;20477;-79
2022/11/14 09:50:51;;;;;;;17.93;11.47;;;9.00;99.90;;;;;;5062448;28;20479;-79
2022/11/14 09:53:25;;;;;;;21.67;13.17;;;9.10;99.90;;;;;;5063471;28;20515;-82
2022/11/14 09:55:52;;;;;;;17.23;10.93;;;9.10;99.90;;;;;;5064421;28;20473;-82
2022/11/14 09:58:21;;;;;;;17.57;12.57;;;9.10;99.90;;;;;;5062495;28;20525;-80
2022/11/14 10:00:54;;;;;;;19.73;13.53;;;9.10;99.90;;;;;;5064726;28;20571;-83
2022/11/14 10:03:33;;;;;;;20.67;13.13;;;9.20;99.90;;;;;;5064495;28;20511;-82
2022/11/14 10:06:21;;;;;;;19.30;13.18;;;9.20;99.90;;;;;;5120153;27;1283012;-82
2022/11/14 10:09:03;;;;;;;19.43;13.80;;;9.20;99.90;;;;;;5124451;28;20188;-82
2022/11/14 10:11:35;;;;;;;19.57;12.70;;;9.30;99.90;;;;;;5120742;28;20646;-80
2022/11/14 10:14:35;;;;;;;19.27;12.87;;;9.20;99.90;;;;;;5119421;28;20487;-80
2022/11/14 10:17:14;;;;;;;24.00;13.10;;;9.20;99.90;;;;;;5115861;28;20459;-80
2022/11/14 10:19:47;;;;;;;21.33;13.70;;;9.20;99.90;;;;;;5139892;28;20449;-81
2022/11/14 10:22:41;;;;;;;20.43;12.37;;;9.10;99.90;;;;;;5141286;28;20943;-80
2022/11/14 10:25:22;;;;;;;19.33;13.40;;;9.20;99.90;;;;;;5142397;28;20583;-81
2022/11/14 10:28:00;;;;;;;18.13;11.23;;;9.00;99.90;;;;;;5140666;28;20892;-83
2022/11/14 10:30:35;;;;;;;18.20;12.93;;;9.10;99.90;;;;;;5143519;28;20528;-82
2022/11/14 10:33:13;;;;;;;18.90;12.80;;;9.10;99.90;;;;;;5143360;28;20479;-80
2022/11/14 10:35:43;;;;;;;18.47;12.80;;;9.30;99.90;;;;;;5141802;28;20485;-81
2022/11/14 10:38:18;;;;;;;17.17;11.70;;;9.30;99.90;;;;;;5140957;28;20539;-81
2022/11/14 10:40:47;;;;;;;19.03;11.93;;;9.40;99.90;;;;;;5140878;28;20502;-81
2022/11/14 10:43:24;;;;;;;17.60;11.20;;;9.40;99.90;;;;;;5142663;28;20469;-78
2022/11/14 10:45:57;;;;;;;17.03;12.37;;;9.40;99.90;;;;;;5139457;28;20514;-80
2022/11/14 10:48:30;;;;;;;18.83;12.97;;;9.40;99.90;;;;;;5125929;28;20444;-79
2022/11/14 10:50:59;;;;;;;20.83;12.57;;;9.40;99.90;;;;;;5116964;28;20471;-79
2022/11/14 10:53:35;;;;;;;17.70;11.83;;;9.40;99.90;;;;;;5146123;22;20517;-78
2022/11/14 10:56:02;;;;;;;20.27;13.50;;;9.40;99.90;;;;;;5129278;28;20506;-78
2022/11/14 10:58:29;;;;;;;19.10;11.80;;;9.50;99.90;;;;;;5128043;28;20824;-78
2022/11/14 11:00:55;;;;;;;17.90;11.40;;;9.40;99.90;;;;;;5133027;28;20456;-77
2022/11/14 11:03:42;;;;;;;16.50;11.33;;;9.40;99.90;;;;;;5119668;28;20466;-77
2022/11/14 11:06:25;;;;;;;15.97;10.93;;;9.50;99.90;;;;;;5108097;28;20487;-77
2022/11/14 11:11:40;;;;;;;16.80;12.00;;;9.60;99.90;;;;;;5108592;28;20482;-77
2022/11/14 11:14:17;;;;;;;15.50;10.50;;;9.60;99.90;;;;;;5108245;28;20450;-77
2022/11/14 11:16:46;;;;;;;20.10;11.30;;;9.70;99.90;;;;;;5098882;28;20512;-76
2022/11/14 11:19:15;;;;;;;15.30;10.27;;;9.80;99.90;;;;;;5093439;28;20452;-78
2022/11/14 11:21:49;;;;;;;17.67;11.97;;;9.90;99.90;;;;;;5094651;28;20536;-78
2022/11/14 11:24:31;;;;;;;15.67;10.80;;;10.00;99.90;;;;;;5094425;28;20964;-79
2022/11/14 11:27:14;;;;;;;15.30;10.40;;;10.10;99.90;;;;;;5094725;28;20803;-78
2022/11/14 11:29:41;;;;;;;15.30;11.00;;;10.30;99.90;;;;;;5073202;28;20441;-77
2022/11/14 11:32:08;;;;;;;16.77;9.63;;;10.40;99.90;;;;;;5074272;28;20474;-77
2022/11/14 11:34:35;;;;;;;12.67;8.73;;;10.40;99.90;;;;;;5073839;28;20451;-77
2022/11/14 11:37:09;;;;;;;15.37;10.60;;;10.60;99.90;;;;;;5075166;28;20440;-78
2022/11/14 11:39:41;;;;;;;13.43;9.60;;;10.90;99.90;;;;;;5093262;28;20914;-78
2022/11/14 11:42:14;;;;;;;15.90;10.43;;;11.30;99.90;;;;;;5094407;28;20466;-77
2022/11/14 11:44:45;;;;;;;15.90;9.97;;;11.90;99.90;;;;;;5093179;28;20474;-77
2022/11/14 11:47:16;;;;;;;13.97;10.27;;;13.10;99.90;;;;;;5094067;28;20556;-78
2022/11/14 11:49:45;;;;;;;13.80;9.80;;;13.30;99.90;;;;;;5092873;28;20454;-77
2022/11/14 11:52:17;;;;;;;11.97;8.97;;;12.90;99.90;;;;;;5093843;28;20489;-78
2022/11/14 11:54:55;;;;;;;12.90;10.00;;;13.10;99.90;;;;;;5094398;28;20457;-77
2022/11/14 11:57:29;;;;;;;14.03;9.50;;;13.50;99.90;;;;;;5092733;28;20859;-77
2022/11/14 12:00:02;;;;;;;13.60;9.40;;;13.30;99.90;;;;;;5092736;28;21029;-77
2022/11/14 12:02:30;;;;;;;11.00;8.40;;;13.20;99.90;;;;;;5093589;28;20587;-78
2022/11/14 12:04:57;;;;;;;13.00;9.30;;;13.10;99.90;;;;;;5093776;28;20486;-76
2022/11/14 12:07:35;;;;;;;14.40;9.47;;;13.00;99.90;;;;;;5092461;28;20456;-76
2022/11/14 12:10:13;;;;;;;13.03;8.83;;;12.80;99.90;;;;;;5084694;28;20551;-79
2022/11/14 12:13:11;;;;;;;13.13;9.90;;;12.80;99.90;;;;;;5095343;28;20466;-78
2022/11/14 12:15:48;;;;;;;12.43;9.03;;;12.50;99.90;;;;;;5094883;28;20443;-77
2022/11/14 12:18:34;;;;;;;13.97;8.83;;;12.40;99.90;;;;;;5093719;28;20450;-80
2022/11/14 12:21:16;;;;;;;12.43;8.67;;;12.30;99.90;;;;;;5094823;28;20495;-78
2022/11/14 12:24:41;;;;;;;11.33;8.47;;;12.10;99.90;;;;;;5092788;28;21047;-79
2022/11/14 12:27:29;;;;;;;10.43;8.33;;;12.00;99.90;;;;;;5066586;28;20537;-78
2022/11/14 12:30:13;;;;;;;10.47;7.63;;;11.80;99.90;;;;;;5091274;28;20453;-79
2022/11/14 12:32:45;;;;;;;14.23;8.00;;;12.00;99.90;;;;;;5095251;28;20466;-79
2022/11/14 12:35:19;;;;;;;12.67;7.57;;;12.20;99.90;;;;;;5108883;28;20469;-79
2022/11/14 12:37:48;;;;;;;10.67;7.27;;;12.40;99.90;;;;;;5100359;28;20426;-78
2022/11/14 12:40:27;;;;;;;11.03;7.50;;;12.30;99.90;;;;;;5093747;28;20467;-77
2022/11/14 12:42:56;;;;;;;11.57;7.93;;;12.20;99.90;;;;;;5092468;28;20470;-76
2022/11/14 12:46:00;;;;;;;10.80;7.50;;;12.10;99.90;;;;;;5094308;28;20512;-78
2022/11/14 12:48:32;;;;;;;10.30;7.47;;;11.90;99.90;;;;;;5092126;28;20883;-78
2022/11/14 12:51:00;;;;;;;11.10;7.73;;;11.90;99.90;;;;;;5093626;28;20544;-79
2022/11/14 12:53:43;;;;;;;9.27;6.40;;;11.80;99.90;;;;;;5092568;28;21024;-77
2022/11/14 12:56:36;;;;;;;9.93;6.37;;;11.70;99.90;;;;;;5093209;28;20441;-77
2022/11/14 12:59:49;;;;;;;8.50;6.40;;;11.60;99.90;;;;;;5090281;28;20453;-78
2022/11/14 13:03:06;;;;;;;10.20;7.20;;;11.50;99.90;;;;;;5073379;28;20478;-78
2022/11/14 13:05:49;;;;;;;9.70;6.50;;;11.20;99.90;;;;;;5057395;28;21010;-79
2022/11/14 13:08:34;;;;;;;8.63;6.67;;;11.30;99.90;;;;;;5097682;28;20534;-78